Coin, Iowa
Current Conditions -  °F | °C
As of 1:35 AM on Thursday 23 Oct 2014 (Local Time) from KICL Reporting Station
Light Rain Light Rain  
Wind Chill: 14°   Ceiling: 4300
Heat Index: 14°   Visibility: 5mi
Dew Point: 14°   Wind: 8mph
Humidity: 100%   Direction: 170°S
Pressure: 30.09"   Gusts: NA
Location:  40.65°N, 95.23°W
Report Text: KICL 230635Z AUTO 17007KT 5SM -RA SCT037 BKN043 OVC075 14/14 A3009 RMK AO2
Loading
Personal Weather Stations






























Interactive Weather Map
Tropical Storm Tracking
New forecast layout! Learn more

10-Day Weather Forecast

Advertisements
Track Severe Weather on mobile